Time;durP1;ratioP1;P1;durP2;ratioP2;P2;SDS_P1;SDS_P2;PMS_P1;PMS_P2;Temp;Humidity;BMP_temperature;BMP_pressure;BME280_temperature;BME280_humidity;BME280_pressure;Samples;Min_cycle;Max_cycle;Signal;HPM_P1;HPM_P2
2021/12/23 00:00:04;;;;;;;30.60;16.95;;;;;;;-4.59;78.58;96631.69;5072863;28;20049;-77
2021/12/23 00:02:31;;;;;;;33.58;17.05;;;;;;;-4.58;78.79;96620.84;5073717;28;20048;-76
2021/12/23 00:04:57;;;;;;;34.90;18.25;;;;;;;-4.61;79.13;96618.59;5073483;28;20526;-76
2021/12/23 00:07:25;;;;;;;39.28;18.50;;;;;;;-4.60;79.60;96609.59;5073028;28;20048;-76
2021/12/23 00:10:06;;;;;;;40.72;19.17;;;;;;;-4.59;80.00;96608.59;5073259;28;20052;-77
2021/12/23 00:12:34;;;;;;;35.45;18.45;;;;;;;-4.59;80.18;96597.94;5073342;28;20047;-76
2021/12/23 00:15:03;;;;;;;38.97;19.10;;;;;;;-4.58;80.32;96594.25;5073504;28;20044;-77
2021/12/23 00:17:53;;;;;;;34.10;17.58;;;;;;;-4.53;80.24;96596.28;5073292;28;20070;-76
2021/12/23 00:25:46;;;;;;;35.50;17.73;;;;;;;-4.58;80.11;96594.25;5073711;28;20089;-77
2021/12/23 00:28:12;;;;;;;36.80;17.73;;;;;;;-4.59;79.97;96592.63;5069165;28;20431;-76
2021/12/23 00:30:39;;;;;;;35.05;17.95;;;;;;;-4.62;79.82;96587.75;5070337;28;20045;-76
2021/12/23 00:33:05;;;;;;;33.60;16.30;;;;;;;-4.61;79.41;96589.38;5069258;28;20053;-77
2021/12/23 00:35:32;;;;;;;35.88;17.25;;;;;;;-4.64;79.27;96587.16;5070038;28;20412;-76
2021/12/23 00:38:02;;;;;;;34.05;17.10;;;;;;;-4.66;79.05;96581.22;5069888;28;20044;-77
2021/12/23 00:40:30;;;;;;;29.92;16.42;;;;;;;-4.67;79.00;96578.78;5069569;28;20515;-76
2021/12/23 00:42:57;;;;;;;33.78;17.33;;;;;;;-4.66;78.87;96581.22;5070098;28;20136;-77
2021/12/23 00:45:24;;;;;;;34.45;18.17;;;;;;;-4.65;78.61;96582.03;5069916;28;20048;-76
2021/12/23 00:47:50;;;;;;;33.42;17.42;;;;;;;-4.69;78.75;96584.34;5069575;28;20036;-76
2021/12/23 00:50:17;;;;;;;31.00;17.02;;;;;;;-4.67;78.62;96582.25;5069671;28;20048;-77
2021/12/23 00:52:43;;;;;;;34.05;17.38;;;;;;;-4.66;78.80;96580.41;5069767;28;20063;-76
2021/12/23 00:55:12;;;;;;;39.53;19.35;;;;;;;-4.68;78.77;96577.97;5069357;28;20040;-76
2021/12/23 00:57:41;;;;;;;34.33;16.60;;;;;;;-4.66;78.82;96575.09;5069374;28;20059;-76
2021/12/23 01:00:10;;;;;;;35.00;16.35;;;;;;;-4.70;78.84;96569.41;5069625;28;20083;-76
2021/12/23 01:02:37;;;;;;;37.50;18.30;;;;;;;-4.71;78.87;96567.78;5069530;28;20059;-76
2021/12/23 01:05:04;;;;;;;35.05;18.23;;;;;;;-4.75;78.73;96561.25;5069349;28;20052;-76
2021/12/23 01:07:31;;;;;;;34.28;17.58;;;;;;;-4.76;78.88;96559.63;5069374;28;20048;-76
2021/12/23 01:09:57;;;;;;;38.40;17.27;;;;;;;-4.80;79.01;96561.94;5068874;28;20415;-77
2021/12/23 01:12:29;;;;;;;34.42;17.08;;;;;;;-4.78;78.97;96567.03;5068954;28;20052;-76
2021/12/23 01:15:09;;;;;;;37.50;16.70;;;;;;;-4.77;78.83;96558.03;5069597;28;20044;-76
2021/12/23 01:17:53;;;;;;;34.45;16.65;;;;;;;-4.80;78.89;96558.47;5069039;28;20059;-77
2021/12/23 01:20:25;;;;;;;39.08;17.00;;;;;;;-4.87;78.93;96557.69;5069213;28;20557;-76
2021/12/23 01:22:51;;;;;;;34.60;16.90;;;;;;;-4.82;79.10;96560.50;5069220;28;20123;-77
2021/12/23 01:25:18;;;;;;;33.33;17.75;;;;;;;-4.79;78.73;96560.09;5068742;28;20075;-76
2021/12/23 01:27:44;;;;;;;37.05;17.90;;;;;;;-4.79;78.67;96565.41;5069138;28;20491;-76
2021/12/23 01:30:13;;;;;;;35.17;18.08;;;;;;;-4.78;78.66;96573.16;5068704;28;20052;-78
2021/12/23 01:32:40;;;;;;;32.22;16.45;;;;;;;-4.75;78.78;96571.88;5068958;28;20052;-76
2021/12/23 01:35:07;;;;;;;32.80;16.55;;;;;;;-4.69;77.96;96573.72;5068162;28;20056;-75
2021/12/23 01:37:34;;;;;;;35.83;17.48;;;;;;;-4.65;77.55;96579.38;5068461;28;20057;-76
2021/12/23 01:40:00;;;;;;;31.52;16.55;;;;;;;-4.64;77.28;96583.69;5066144;28;20048;-76
2021/12/23 01:42:27;;;;;;;31.70;15.95;;;;;;;-4.61;77.09;96589.38;5068760;28;20440;-77
2021/12/23 01:44:53;;;;;;;35.15;16.02;;;;;;;-4.65;76.94;96585.50;5068848;28;20060;-76
2021/12/23 01:47:21;;;;;;;32.47;16.15;;;;;;;-4.64;76.91;96583.69;5068098;28;20075;-76
2021/12/23 01:49:48;;;;;;;32.67;15.77;;;;;;;-4.70;77.03;96580.03;5068656;28;20098;-76
2021/12/23 01:52:14;;;;;;;31.83;15.18;;;;;;;-4.70;77.32;96580.03;5068341;28;20040;-76
2021/12/23 01:54:41;;;;;;;33.95;16.55;;;;;;;-4.63;77.20;96567.53;5068459;28;20139;-76
2021/12/23 01:57:08;;;;;;;29.42;15.43;;;;;;;-4.61;77.04;96570.75;5067975;28;20424;-76
2021/12/23 01:59:35;;;;;;;31.20;15.30;;;;;;;-4.59;76.93;96576.69;5068424;28;20072;-77
2021/12/23 02:02:01;;;;;;;33.35;16.27;;;;;;;-4.60;77.08;96569.72;5068597;28;20044;-76
2021/12/23 02:04:29;;;;;;;34.72;16.73;;;;;;;-4.63;77.13;96564.88;5068193;28;20055;-77
2021/12/23 02:06:56;;;;;;;31.63;16.30;;;;;;;-4.65;77.41;96556.28;5068357;28;20047;-76
2021/12/23 02:09:22;;;;;;;31.65;15.45;;;;;;;-4.63;77.40;96556.09;5067516;28;20045;-76
2021/12/23 02:11:50;;;;;;;32.47;16.83;;;;;;;-4.63;77.49;96554.22;5067838;28;20051;-76
2021/12/23 02:14:18;;;;;;;30.08;16.10;;;;;;;-4.62;77.36;96544.41;5067652;28;20066;-76
2021/12/23 02:16:44;;;;;;;35.40;17.38;;;;;;;-4.61;77.52;96546.84;5068387;28;20430;-76
2021/12/23 02:19:17;;;;;;;32.38;16.52;;;;;;;-4.62;77.62;96545.22;5067527;28;20052;-76
2021/12/23 02:21:45;;;;;;;35.88;17.02;;;;;;;-4.60;77.59;96543.16;5068298;28;20056;-77
2021/12/23 02:24:12;;;;;;;33.05;16.52;;;;;;;-4.64;77.42;96531.34;5067386;28;20059;-76
2021/12/23 02:26:39;;;;;;;34.60;17.38;;;;;;;-4.70;77.77;96532.19;5068235;28;20044;-77
2021/12/23 02:29:06;;;;;;;34.53;17.05;;;;;;;-4.70;78.07;96531.38;5067394;28;20044;-76
2021/12/23 02:31:33;;;;;;;33.95;17.08;;;;;;;-4.68;78.01;96530.16;5068278;28;20044;-76
2021/12/23 02:33:59;;;;;;;30.58;16.30;;;;;;;-4.65;77.90;96524.38;5067766;28;20048;-76
2021/12/23 02:36:26;;;;;;;31.17;16.58;;;;;;;-4.64;77.61;96522.56;5067244;28;20052;-76
2021/12/23 02:38:54;;;;;;;32.10;16.13;;;;;;;-4.61;77.50;96516.81;5067743;28;20049;-76
2021/12/23 02:41:21;;;;;;;29.65;15.65;;;;;;;-4.61;77.27;96509.66;5067092;28;20044;-76
2021/12/23 02:43:47;;;;;;;30.30;15.85;;;;;;;-4.60;77.40;96505.94;5067689;28;20052;-77
2021/12/23 02:46:17;;;;;;;37.17;17.77;;;;;;;-4.60;77.59;96505.94;5067559;28;20071;-76
2021/12/23 02:48:44;;;;;;;32.05;16.25;;;;;;;-4.57;77.65;96502.06;5067597;28;20076;-76
2021/12/23 02:51:13;;;;;;;36.53;16.60;;;;;;;-4.56;77.76;96509.81;5066927;28;20052;-76
2021/12/23 02:53:41;;;;;;;36.05;17.17;;;;;;;-4.60;77.54;96505.94;5067581;28;20056;-76
2021/12/23 02:56:14;;;;;;;34.58;16.42;;;;;;;-4.60;77.60;96495.31;5067432;28;20056;-76
2021/12/23 02:58:40;;;;;;;34.35;17.27;;;;;;;-4.61;77.43;96496.34;5067493;28;20052;-76
2021/12/23 03:01:09;;;;;;;32.58;16.70;;;;;;;-4.62;77.48;96494.75;5067284;28;20048;-75
2021/12/23 03:03:36;;;;;;;29.23;15.77;;;;;;;-4.62;77.41;96500.06;5067656;28;20052;-76
2021/12/23 03:06:03;;;;;;;30.10;16.00;;;;;;;-4.61;77.34;96499.00;5067192;28;20048;-75
2021/12/23 03:08:31;;;;;;;37.10;17.10;;;;;;;-4.63;77.40;96500.28;5067465;28;20060;-77
2021/12/23 03:10:58;;;;;;;30.60;15.65;;;;;;;-4.61;77.15;96499.00;5078037;28;20051;-76
2021/12/23 03:13:27;;;;;;;31.67;16.88;;;;;;;-4.64;77.11;96494.16;5087052;28;20085;-76
2021/12/23 03:15:53;;;;;;;31.90;16.52;;;;;;;-4.65;76.82;96492.50;5086698;28;20039;-76
2021/12/23 03:18:20;;;;;;;33.70;16.65;;;;;;;-4.68;76.79;96492.97;5066779;28;20404;-76
2021/12/23 03:20:46;;;;;;;28.25;14.80;;;;;;;-4.70;77.04;96489.69;5067397;28;20053;-76
2021/12/23 03:23:13;;;;;;;29.77;15.85;;;;;;;-4.70;76.90;96489.69;5066754;28;20052;-76
2021/12/23 03:25:39;;;;;;;34.22;17.63;;;;;;;-4.69;76.88;96487.88;5067741;28;20052;-76
2021/12/23 03:28:06;;;;;;;30.17;15.50;;;;;;;-4.67;76.98;96494.56;5066678;28;20055;-76
2021/12/23 03:30:34;;;;;;;33.00;16.27;;;;;;;-4.67;77.16;96485.81;5067634;28;20045;-76
2021/12/23 03:33:01;;;;;;;31.98;16.25;;;;;;;-4.68;77.01;96492.97;5067269;28;20053;-76
2021/12/23 03:35:27;;;;;;;32.30;17.30;;;;;;;-4.67;77.08;96489.25;5066839;28;20053;-76
2021/12/23 03:37:54;;;;;;;32.83;17.02;;;;;;;-4.67;77.23;96488.47;5067056;28;20055;-76
2021/12/23 03:40:22;;;;;;;30.95;16.38;;;;;;;-4.67;77.09;96491.91;5066484;28;20055;-76
2021/12/23 03:42:49;;;;;;;32.08;16.50;;;;;;;-4.67;77.18;96483.94;5064298;28;20049;-76
2021/12/23 03:45:15;;;;;;;31.25;16.70;;;;;;;-4.71;77.24;96485.41;5066459;28;20052;-76
2021/12/23 03:47:48;;;;;;;32.58;16.83;;;;;;;-4.73;77.14;96490.16;5067324;28;20071;-76
2021/12/23 03:50:16;;;;;;;32.08;15.85;;;;;;;-4.79;76.88;96477.75;5066378;28;20060;-76
2021/12/23 03:52:44;;;;;;;32.25;16.33;;;;;;;-4.85;77.26;96465.34;5067320;28;20048;-76
2021/12/23 03:55:11;;;;;;;36.08;16.98;;;;;;;-4.90;77.09;96462.50;5066342;28;20044;-77
2021/12/23 03:57:38;;;;;;;31.73;16.13;;;;;;;-4.92;77.38;96464.56;5066920;28;20045;-76
2021/12/23 04:00:08;;;;;;;32.97;16.95;;;;;;;-4.89;77.46;96469.44;5066388;28;20565;-76
2021/12/23 04:02:35;;;;;;;32.72;16.27;;;;;;;-4.85;77.31;96468.00;5068582;28;20052;-77
2021/12/23 04:05:03;;;;;;;36.38;15.77;;;;;;;-4.85;77.12;96460.03;5070851;28;20052;-76
2021/12/23 04:07:30;;;;;;;29.10;15.07;;;;;;;-4.83;77.17;96465.91;5070414;28;20055;-76
2021/12/23 04:09:56;;;;;;;29.77;15.40;;;;;;;-4.81;77.19;96453.22;5070361;28;20045;-76
2021/12/23 04:12:23;;;;;;;30.67;15.32;;;;;;;-4.87;77.15;96451.44;5070031;28;20052;-75
2021/12/23 04:14:49;;;;;;;35.00;16.67;;;;;;;-4.96;77.52;96431.50;5070626;28;20052;-76
2021/12/23 04:17:16;;;;;;;34.75;16.65;;;;;;;-5.02;77.36;96444.59;5069821;28;20407;-76
2021/12/23 04:19:44;;;;;;;31.67;16.55;;;;;;;-5.01;77.25;96435.63;5070564;28;20052;-76
2021/12/23 04:22:12;;;;;;;32.72;15.85;;;;;;;-4.97;77.22;96429.88;5069760;28;20080;-76
2021/12/23 04:24:39;;;;;;;31.08;15.55;;;;;;;-4.94;77.21;96432.09;5070373;28;20675;-76
2021/12/23 04:27:06;;;;;;;33.35;16.40;;;;;;;-4.94;77.40;96429.44;5069782;28;20059;-76
2021/12/23 04:29:33;;;;;;;34.00;16.08;;;;;;;-4.95;77.34;96430.47;5070205;28;20056;-76
2021/12/23 04:32:00;;;;;;;33.28;16.88;;;;;;;-5.01;77.42;96419.69;5070401;28;20049;-76
2021/12/23 04:34:27;;;;;;;34.08;17.67;;;;;;;-5.06;77.55;96416.88;5069618;28;20052;-76
2021/12/23 04:36:54;;;;;;;29.85;16.00;;;;;;;-5.06;77.50;96411.56;5070264;28;20044;-76
2021/12/23 04:39:22;;;;;;;32.17;16.02;;;;;;;-5.08;77.71;96392.38;5069755;28;20056;-75
2021/12/23 04:41:48;;;;;;;33.30;16.48;;;;;;;-5.12;78.03;96396.50;5067985;28;20057;-76
2021/12/23 04:44:14;;;;;;;33.00;16.95;;;;;;;-5.15;78.29;96385.53;5069507;28;20053;-76
2021/12/23 04:46:41;;;;;;;32.85;16.48;;;;;;;-5.16;78.23;96384.72;5070253;28;20052;-76
2021/12/23 04:49:07;;;;;;;34.67;16.15;;;;;;;-5.15;78.10;96383.66;5069574;28;20052;-76
2021/12/23 04:51:34;;;;;;;33.03;15.85;;;;;;;-5.15;78.05;96378.38;5069994;28;20415;-78
2021/12/23 04:54:00;;;;;;;30.58;16.30;;;;;;;-5.20;77.98;96372.09;5070105;28;20055;-76
2021/12/23 04:56:28;;;;;;;32.95;16.17;;;;;;;-5.23;78.32;96373.31;5069630;28;20083;-77
2021/12/23 04:58:55;;;;;;;32.28;16.98;;;;;;;-5.28;78.38;96367.84;5069371;28;20075;-77
2021/12/23 05:01:28;;;;;;;35.50;16.13;;;;;;;-5.27;78.44;96364.19;5069439;28;20052;-76
2021/12/23 05:03:55;;;;;;;30.27;15.48;;;;;;;-5.30;78.25;96372.56;5069587;28;20643;-76
2021/12/23 05:06:21;;;;;;;33.08;15.27;;;;;;;-5.33;78.44;96363.19;5069328;28;20060;-76
2021/12/23 05:08:48;;;;;;;29.45;15.65;;;;;;;-5.29;78.26;96377.66;5069408;28;20546;-76
2021/12/23 05:11:16;;;;;;;30.02;15.20;;;;;;;-5.29;77.94;96380.31;5067043;28;20432;-76
2021/12/23 05:13:47;;;;;;;31.02;15.13;;;;;;;-5.28;77.87;96381.13;5069569;28;20048;-76
2021/12/23 05:16:14;;;;;;;30.58;16.05;;;;;;;-5.30;77.84;96389.31;5068933;28;20056;-76
2021/12/23 05:18:40;;;;;;;30.38;15.68;;;;;;;-5.25;77.48;96391.31;5069030;28;20051;-76
2021/12/23 05:21:06;;;;;;;27.42;14.45;;;;;;;-5.30;77.60;96391.16;5069086;28;20056;-76
2021/12/23 05:23:33;;;;;;;31.33;15.55;;;;;;;-5.36;77.83;96386.72;5069411;28;20056;-76
2021/12/23 05:26:00;;;;;;;31.05;15.57;;;;;;;-5.42;78.00;96382.28;5069497;28;20047;-76
2021/12/23 05:28:26;;;;;;;32.78;15.23;;;;;;;-5.42;78.21;96379.63;5068746;28;20404;-76
2021/12/23 05:30:54;;;;;;;31.85;15.07;;;;;;;-5.44;78.28;96381.66;5069310;28;20040;-76
2021/12/23 05:33:21;;;;;;;29.13;14.55;;;;;;;-5.42;78.38;96382.28;5068225;28;20045;-75
2021/12/23 05:35:47;;;;;;;29.77;14.70;;;;;;;-5.39;77.64;96395.09;5068949;28;20393;-76
2021/12/23 05:38:14;;;;;;;28.48;13.98;;;;;;;-5.39;76.95;96392.44;5068263;28;20415;-76
2021/12/23 05:40:40;;;;;;;33.55;14.75;;;;;;;-5.44;76.48;96386.97;5069052;28;20052;-77
2021/12/23 05:43:07;;;;;;;31.95;15.02;;;;;;;-5.52;76.44;96380.91;5066397;28;20083;-76
2021/12/23 05:45:33;;;;;;;30.15;15.32;;;;;;;-5.57;76.54;96371.97;5068934;28;20055;-76
2021/12/23 05:48:01;;;;;;;29.27;14.63;;;;;;;-5.61;76.93;96368.94;5068399;28;20507;-76
2021/12/23 05:50:28;;;;;;;31.63;15.50;;;;;;;-5.65;77.28;96381.00;5068495;28;20044;-76
2021/12/23 05:52:55;;;;;;;30.52;15.07;;;;;;;-5.59;77.21;96379.31;5069254;28;20044;-76
2021/12/23 05:55:21;;;;;;;30.25;14.88;;;;;;;-5.59;76.97;96385.44;5068416;28;20048;-76
2021/12/23 05:57:48;;;;;;;29.10;15.30;;;;;;;-5.66;76.98;96374.06;5068850;28;20064;-75
2021/12/23 06:00:18;;;;;;;33.30;15.80;;;;;;;-5.69;77.27;96369.22;5067970;28;20067;-76
2021/12/23 06:02:45;;;;;;;27.80;15.23;;;;;;;-5.72;77.51;96363.53;5068567;28;20055;-76
2021/12/23 06:05:14;;;;;;;33.08;16.02;;;;;;;-5.72;77.49;96374.13;5068015;28;20045;-76
2021/12/23 06:07:40;;;;;;;28.50;14.38;;;;;;;-5.74;77.53;96365.56;5068296;28;20479;-76
2021/12/23 06:10:08;;;;;;;31.75;15.88;;;;;;;-5.76;77.63;96357.81;5067988;28;20048;-75
2021/12/23 06:12:35;;;;;;;29.55;15.55;;;;;;;-5.79;77.80;96359.09;5066332;28;20044;-77
2021/12/23 06:15:01;;;;;;;31.63;16.42;;;;;;;-5.79;77.71;96353.78;5068458;28;20048;-76
2021/12/23 06:17:28;;;;;;;30.75;16.52;;;;;;;-5.79;77.87;96353.78;5067923;28;20399;-76
2021/12/23 06:19:54;;;;;;;30.88;15.70;;;;;;;-5.84;77.98;96344.84;5068156;28;20423;-76
2021/12/23 06:22:22;;;;;;;31.45;15.93;;;;;;;-5.83;77.94;96357.06;5067842;28;20041;-76
2021/12/23 06:24:49;;;;;;;33.60;15.18;;;;;;;-5.87;77.92;96356.69;5067527;28;20055;-76
2021/12/23 06:27:17;;;;;;;35.22;15.98;;;;;;;-5.88;77.82;96351.59;5067430;28;20546;-76
2021/12/23 06:29:44;;;;;;;29.30;15.07;;;;;;;-5.87;78.01;96361.16;5068199;28;20047;-76
2021/12/23 06:32:10;;;;;;;31.33;15.23;;;;;;;-5.86;77.75;96362.78;5067550;28;20056;-76
2021/12/23 06:34:37;;;;;;;33.67;14.65;;;;;;;-5.86;77.91;96362.78;5067694;28;20048;-76
2021/12/23 06:37:04;;;;;;;32.75;14.88;;;;;;;-5.90;78.04;96357.13;5067195;28;20052;-75
2021/12/23 06:39:33;;;;;;;29.20;14.98;;;;;;;-5.92;77.85;96353.88;5067831;28;20504;-75
2021/12/23 06:41:59;;;;;;;29.67;15.13;;;;;;;-5.91;77.96;96354.69;5065682;28;20052;-76
2021/12/23 06:44:26;;;;;;;33.22;15.32;;;;;;;-5.90;77.97;96361.59;5067281;28;20045;-76
2021/12/23 06:46:52;;;;;;;33.70;16.02;;;;;;;-5.87;78.04;96361.16;5067709;28;20052;-76
2021/12/23 06:49:19;;;;;;;31.13;15.95;;;;;;;-5.86;77.73;96357.50;5067133;28;20574;-76
2021/12/23 06:51:46;;;;;;;34.83;15.52;;;;;;;-5.81;77.67;96363.78;5067968;28;20053;-76
2021/12/23 06:54:15;;;;;;;33.92;16.63;;;;;;;-5.79;77.60;96363.56;5067146;28;20055;-75
2021/12/23 06:56:44;;;;;;;33.55;16.58;;;;;;;-5.78;77.66;96354.59;5067560;28;20048;-76
2021/12/23 06:59:14;;;;;;;36.75;16.60;;;;;;;-5.75;77.74;96361.28;5067119;28;20388;-75
2021/12/23 07:01:40;;;;;;;36.60;15.23;;;;;;;-5.78;77.71;96373.16;5067819;28;20048;-76
2021/12/23 07:04:13;;;;;;;32.35;15.52;;;;;;;-5.75;77.74;96369.25;5067361;28;20056;-74
2021/12/23 07:06:46;;;;;;;28.75;15.07;;;;;;;-5.75;77.70;96367.41;5067797;28;20070;-76
2021/12/23 07:09:14;;;;;;;30.88;15.57;;;;;;;-5.71;77.72;96375.75;5066853;28;20149;-75
2021/12/23 07:11:40;;;;;;;33.53;16.02;;;;;;;-5.78;77.61;96365.19;5065498;28;20131;-76
2021/12/23 07:14:08;;;;;;;32.65;14.70;;;;;;;-5.77;77.84;96372.13;5066689;28;20052;-75
2021/12/23 07:16:37;;;;;;;30.90;14.57;;;;;;;-5.77;77.77;96372.94;5067655;28;20044;-76
2021/12/23 07:19:04;;;;;;;31.65;15.40;;;;;;;-5.74;78.09;96377.00;5066820;28;20056;-76
2021/12/23 07:21:30;;;;;;;30.05;14.30;;;;;;;-5.72;77.79;96384.75;5067585;28;20060;-76
2021/12/23 07:23:57;;;;;;;30.20;15.43;;;;;;;-5.66;78.10;96389.19;5067338;28;20055;-77
2021/12/23 07:26:23;;;;;;;33.25;16.35;;;;;;;-5.62;77.98;96385.06;5067203;28;20045;-76
2021/12/23 07:28:50;;;;;;;30.27;15.23;;;;;;;-5.60;78.06;96386.47;5067173;28;20049;-76
2021/12/23 07:31:18;;;;;;;32.53;14.48;;;;;;;-5.48;77.82;96383.97;5066971;28;20063;-76
2021/12/23 07:33:44;;;;;;;32.05;15.63;;;;;;;-5.46;77.54;96375.78;5067157;28;20044;-76
2021/12/23 07:36:11;;;;;;;33.45;14.82;;;;;;;-5.41;77.58;96365.31;5067162;28;20641;-77
2021/12/23 07:38:38;;;;;;;32.00;16.05;;;;;;;-5.39;77.55;96371.22;5071102;28;20052;-76
2021/12/23 07:41:04;;;;;;;31.40;15.40;;;;;;;-5.37;77.49;96372.63;5069017;28;20056;-75
2021/12/23 07:43:55;;;;;;;32.30;14.70;;;;;;;-5.30;77.72;96377.88;5071464;28;20047;-76
2021/12/23 07:46:23;;;;;;;30.02;15.88;;;;;;;-5.24;78.11;96382.31;5070851;28;20078;-76
2021/12/23 07:48:49;;;;;;;32.38;15.98;;;;;;;-5.14;78.71;96379.16;5070950;28;20110;-76
2021/12/23 07:51:16;;;;;;;36.33;16.38;;;;;;;-5.04;79.08;96385.59;5070253;28;20056;-76
2021/12/23 07:53:42;;;;;;;33.83;16.67;;;;;;;-4.94;79.05;96389.63;5070948;28;20055;-75
2021/12/23 07:56:09;;;;;;;32.88;15.50;;;;;;;-4.82;79.13;96385.19;5070386;28;20048;-76
2021/12/23 07:58:35;;;;;;;34.15;15.88;;;;;;;-4.71;79.30;96387.13;5070783;28;20051;-75
2021/12/23 08:01:02;;;;;;;30.15;16.00;;;;;;;-4.62;78.80;96385.78;5070126;28;20508;-74
2021/12/23 08:03:30;;;;;;;32.58;16.45;;;;;;;-4.47;78.41;96388.09;5070857;28;20053;-75
2021/12/23 08:05:56;;;;;;;28.98;14.57;;;;;;;-4.37;77.57;96376.94;5070776;28;20048;-76
2021/12/23 08:08:23;;;;;;;34.85;15.38;;;;;;;-4.24;77.67;96382.06;5070475;28;20055;-75
2021/12/23 08:10:50;;;;;;;30.35;16.08;;;;;;;-4.08;77.76;96368.16;5070703;28;20127;-76
2021/12/23 08:13:16;;;;;;;34.65;17.40;;;;;;;-3.96;77.88;96368.22;5070085;28;20049;-76
2021/12/23 08:15:43;;;;;;;33.47;16.33;;;;;;;-3.84;77.38;96376.25;5070572;28;20055;-76
2021/12/23 08:18:10;;;;;;;34.03;17.30;;;;;;;-3.76;76.63;96370.56;5069684;28;20565;-76
2021/12/23 08:20:38;;;;;;;30.00;15.68;;;;;;;-3.69;76.12;96353.50;5070678;28;20044;-76
2021/12/23 08:23:05;;;;;;;29.77;14.75;;;;;;;-3.60;76.12;96351.31;5070178;28;20060;-75
2021/12/23 08:25:32;;;;;;;29.75;14.57;;;;;;;-3.49;76.50;96353.19;5070463;28;20044;-76
2021/12/23 08:27:58;;;;;;;30.38;14.35;;;;;;;-3.38;76.53;96343.59;5070185;28;20047;-76
2021/12/23 08:30:25;;;;;;;31.50;14.50;;;;;;;-3.30;76.14;96342.44;5069781;28;20730;-76
2021/12/23 08:32:52;;;;;;;28.73;14.88;;;;;;;-3.25;75.86;96326.56;5070120;28;20053;-76
2021/12/23 08:35:19;;;;;;;32.13;14.80;;;;;;;-3.18;75.98;96332.63;5069577;28;20072;-76
2021/12/23 08:37:49;;;;;;;30.38;16.05;;;;;;;-3.10;76.05;96339.44;5070107;28;20044;-76
2021/12/23 08:40:18;;;;;;;29.30;15.65;;;;;;;-3.05;75.76;96332.38;5069442;28;20048;-76
2021/12/23 08:42:45;;;;;;;29.33;15.25;;;;;;;-3.02;75.15;96326.59;5068150;28;20049;-76
2021/12/23 08:45:11;;;;;;;32.25;14.98;;;;;;;-2.98;75.27;96322.38;5069180;28;20135;-76
2021/12/23 08:47:39;;;;;;;31.48;16.25;;;;;;;-2.91;75.19;96311.63;5069344;28;20048;-76
2021/12/23 08:50:07;;;;;;;29.58;14.60;;;;;;;-2.89;75.50;96321.00;5069338;28;20074;-76
2021/12/23 08:52:34;;;;;;;30.83;15.85;;;;;;;-2.85;75.38;96313.34;5069968;28;20044;-76
2021/12/23 08:55:04;;;;;;;31.38;16.40;;;;;;;-2.78;75.12;96307.88;5070061;28;20041;-76
2021/12/23 08:57:31;;;;;;;35.17;16.27;;;;;;;-2.70;75.39;96312.88;5069417;28;20041;-76
2021/12/23 08:59:57;;;;;;;30.55;15.68;;;;;;;-2.66;75.05;96306.03;5069576;28;20052;-76
2021/12/23 09:02:25;;;;;;;28.88;14.93;;;;;;;-2.65;75.06;96296.97;5069103;28;20058;-76
2021/12/23 09:04:51;;;;;;;27.92;14.63;;;;;;;-2.55;75.29;96299.03;5069606;28;20557;-72
2021/12/23 09:07:18;;;;;;;27.30;14.57;;;;;;;-2.46;75.33;96295.75;5069389;28;20052;-73
2021/12/23 09:09:50;;;;;;;29.75;15.02;;;;;;;-2.35;75.49;96299.41;5069382;28;20071;-72
2021/12/23 09:12:19;;;;;;;26.38;14.10;;;;;;;-2.32;74.84;96298.97;5066935;28;20053;-72
2021/12/23 09:14:46;;;;;;;26.83;13.85;;;;;;;-2.37;75.05;96307.66;5051667;28;20052;-73
2021/12/23 09:17:13;;;;;;;28.38;14.88;;;;;;;-2.32;75.10;96298.97;5069079;28;20074;-72
2021/12/23 09:19:40;;;;;;;28.77;14.80;;;;;;;-2.26;74.90;96308.66;5069552;28;20064;-72
2021/12/23 09:22:08;;;;;;;28.60;14.93;;;;;;;-2.17;74.96;96317.13;5068469;28;20549;-72
2021/12/23 09:24:37;;;;;;;25.15;14.68;;;;;;;-2.05;74.93;96315.19;5068568;28;20052;-73
2021/12/23 09:27:16;;;;;;;32.15;14.98;;;;;;;-1.88;75.01;96305.38;5068210;28;20536;-72
2021/12/23 09:32:51;;;;;;;27.23;14.52;;;;;;;-1.62;74.73;96300.47;5068347;28;20052;-73
2021/12/23 09:35:20;;;;;;;30.70;15.27;;;;;;;-1.53;73.96;96309.69;5068346;28;20054;-72
2021/12/23 09:37:47;;;;;;;27.20;14.48;;;;;;;-1.43;74.01;96312.53;5068581;28;20049;-73
2021/12/23 09:40:14;;;;;;;27.45;15.00;;;;;;;-1.40;73.66;96309.38;5068574;28;20052;-73
2021/12/23 09:42:43;;;;;;;30.65;15.40;;;;;;;-1.34;73.51;96297.72;5066856;28;20708;-73
2021/12/23 09:45:13;;;;;;;27.30;14.73;;;;;;;-1.30;73.89;96283.88;5068488;28;20051;-72
2021/12/23 09:47:41;;;;;;;28.92;15.48;;;;;;;-1.20;73.77;96289.34;5068309;28;20053;-73
2021/12/23 09:50:10;;;;;;;29.05;15.35;;;;;;;-1.11;72.96;96293.22;5068532;28;20044;-72
2021/12/23 09:52:41;;;;;;;27.20;14.57;;;;;;;-1.05;73.29;96287.72;5068954;28;20056;-72
2021/12/23 09:55:13;;;;;;;29.88;16.38;;;;;;;-0.96;73.46;96290.78;5068605;28;20044;-72
2021/12/23 09:57:40;;;;;;;27.40;15.50;;;;;;;-0.90;72.76;96283.63;5067808;28;20526;-73
2021/12/23 10:00:11;;;;;;;22.75;13.02;;;;;;;-0.90;71.63;96289.78;5067253;28;20064;-73
2021/12/23 10:02:41;;;;;;;23.48;13.68;;;;;;;-0.97;71.03;96285.69;5067556;28;20172;-73
2021/12/23 10:05:10;;;;;;;23.02;12.30;;;;;;;-0.95;70.99;96280.91;5068312;28;20044;-72
2021/12/23 10:07:38;;;;;;;25.77;13.75;;;;;;;-0.99;70.84;96275.25;5068378;28;20048;-72
2021/12/23 10:10:11;;;;;;;24.33;13.18;;;;;;;-0.93;71.49;96258.22;5068122;28;20052;-73
2021/12/23 10:31:53;;;;;;;25.17;13.35;;;;;;;-0.18;68.76;96226.44;5066493;28;20079;-73
2021/12/23 10:37:20;;;;;;;25.63;13.73;;;;;;;-0.10;69.15;96220.66;5067480;28;20141;-73
2021/12/23 10:39:49;;;;;;;24.42;13.90;;;;;;;-0.07;68.73;96223.59;5067774;28;20044;-74
2021/12/23 10:42:18;;;;;;;25.85;13.82;;;;;;;-0.02;67.47;96220.97;5064852;28;20096;-73
2021/12/23 10:44:49;;;;;;;25.17;13.73;;;;;;;-0.01;67.85;96211.06;5067398;28;20044;-74
2021/12/23 10:47:36;;;;;;;24.90;13.43;;;;;;;-0.04;67.64;96198.22;5067055;28;20423;-75
2021/12/23 10:50:21;;;;;;;25.08;13.20;;;;;;;-0.05;67.39;96199.28;5067222;28;20048;-74
2021/12/23 10:52:52;;;;;;;25.45;13.00;;;;;;;-0.03;67.35;96186.44;5068302;28;20079;-74
2021/12/23 10:58:14;;;;;;;26.67;14.63;;;;;;;0.18;69.43;96171.34;5066763;28;20511;-73
2021/12/23 11:00:45;;;;;;;28.65;14.25;;;;;;;0.36;68.63;96172.81;5067612;28;20055;-73
2021/12/23 11:03:18;;;;;;;22.98;13.05;;;;;;;0.47;68.83;96169.13;5066850;28;20044;-72
2021/12/23 11:05:52;;;;;;;25.88;13.02;;;;;;;0.61;68.35;96167.63;5067725;28;20449;-73
2021/12/23 11:08:27;;;;;;;22.75;13.02;;;;;;;0.72;67.32;96163.13;5066948;28;20048;-73
2021/12/23 11:27:55;;;;;;;21.00;10.75;;;;;;;0.92;63.07;96127.56;5046707;28;20094;-73
2021/12/23 11:38:59;;;;;;;23.40;10.82;;;;;;;1.16;63.50;96112.66;5025263;28;20041;-73
2021/12/23 11:41:35;;;;;;;19.27;10.93;;;;;;;1.20;63.36;96108.38;5052064;28;20071;-73
2021/12/23 11:44:05;;;;;;;21.65;10.82;;;;;;;1.27;63.74;96110.78;5067119;28;20145;-73
2021/12/23 11:46:38;;;;;;;18.70;10.68;;;;;;;1.27;63.60;96108.91;5049989;28;20059;-73
2021/12/23 11:49:09;;;;;;;19.20;10.98;;;;;;;1.27;63.45;96098.19;5046927;28;20519;-74
2021/12/23 11:51:46;;;;;;;23.85;12.20;;;;;;;1.32;64.39;96105.44;5047366;28;20048;-74
2021/12/23 11:54:15;;;;;;;18.30;11.00;;;;;;;1.35;64.43;96104.09;5047191;28;20057;-74
2021/12/23 11:56:47;;;;;;;19.80;10.95;;;;;;;1.44;65.18;96100.63;5047060;28;20053;-74
2021/12/23 11:59:15;;;;;;;21.27;10.50;;;;;;;1.46;65.01;96094.97;5046608;28;20049;-74
2021/12/23 12:01:44;;;;;;;25.30;10.80;;;;;;;1.47;64.16;96091.25;5063973;28;20099;-74
2021/12/23 12:04:13;;;;;;;20.55;11.15;;;;;;;1.45;64.24;96088.81;5066825;28;20071;-74
2021/12/23 12:06:43;;;;;;;19.73;11.35;;;;;;;1.50;64.45;96090.69;5066741;28;20048;-74
2021/12/23 12:09:14;;;;;;;17.33;10.60;;;;;;;1.46;64.12;96085.09;5066257;28;20056;-74
2021/12/23 12:11:42;;;;;;;17.67;10.90;;;;;;;1.42;64.21;96077.84;5066735;28;20049;-74
2021/12/23 12:14:31;;;;;;;24.13;11.05;;;;;;;1.42;64.39;96072.47;5066666;28;20048;-74
2021/12/23 12:17:40;;;;;;;18.90;10.93;;;;;;;1.41;65.20;96068.97;5066684;28;20409;-74
2021/12/23 12:20:22;;;;;;;24.35;12.35;;;;;;;1.43;65.22;96068.69;5066441;28;20050;-74